sensor_id;sensor_type;location;lat;lon;timestamp;pressure;altitude;pressure_sealevel;temperature;humidity
38718;BME280;24468;52.128;9.278;2024-03-23T00:55:16;99990.66;;;10.82;100.00
38718;BME280;24468;52.128;9.278;2024-03-23T00:57:41;99975.16;;;10.86;100.00
38718;BME280;24468;52.128;9.278;2024-03-23T01:00:07;99972.19;;;10.75;100.00
38718;BME280;24468;52.128;9.278;2024-03-23T01:02:35;99971.94;;;10.79;100.00
38718;BME280;24468;52.128;9.278;2024-03-23T01:05:01;99969.75;;;10.70;100.00
38718;BME280;24468;52.128;9.278;2024-03-23T01:07:27;99967.00;;;10.54;100.00
38718;BME280;24468;52.128;9.278;2024-03-23T01:09:52;99973.88;;;10.25;100.00
38718;BME280;24468;52.128;9.278;2024-03-23T01:12:18;99965.72;;;10.61;100.00
38718;BME280;24468;52.128;9.278;2024-03-23T01:14:44;99965.84;;;10.42;100.00
38718;BME280;24468;52.128;9.278;2024-03-23T01:17:09;99966.06;;;10.20;100.00
38718;BME280;24468;52.128;9.278;2024-03-23T01:19:35;99954.38;;;10.55;100.00
38718;BME280;24468;52.128;9.278;2024-03-23T01:22:01;99947.50;;;10.49;100.00
38718;BME280;24468;52.128;9.278;2024-03-23T01:24:26;99941.81;;;10.38;100.00
38718;BME280;24468;52.128;9.278;2024-03-23T01:26:52;99950.25;;;9.95;100.00
38718;BME280;24468;52.128;9.278;2024-03-23T01:29:17;99948.78;;;10.07;100.00
38718;BME280;24468;52.128;9.278;2024-03-23T01:31:43;99947.25;;;10.36;100.00
38718;BME280;24468;52.128;9.278;2024-03-23T01:34:08;99943.13;;;10.46;100.00
38718;BME280;24468;52.128;9.278;2024-03-23T01:36:34;99942.50;;;10.24;100.00
38718;BME280;24468;52.128;9.278;2024-03-23T01:38:59;99939.56;;;10.46;100.00
38718;BME280;24468;52.128;9.278;2024-03-23T01:41:25;99938.53;;;10.49;100.00
38718;BME280;24468;52.128;9.278;2024-03-23T01:43:50;99932.09;;;10.51;100.00
38718;BME280;24468;52.128;9.278;2024-03-23T01:46:16;99931.78;;;10.57;100.00
38718;BME280;24468;52.128;9.278;2024-03-23T01:48:42;99924.53;;;10.58;100.00
38718;BME280;24468;52.128;9.278;2024-03-23T01:51:08;99921.78;;;10.42;100.00
38718;BME280;24468;52.128;9.278;2024-03-23T01:53:34;99923.78;;;10.38;100.00
38718;BME280;24468;52.128;9.278;2024-03-23T01:56:00;99923.72;;;10.40;100.00
38718;BME280;24468;52.128;9.278;2024-03-23T01:58:27;99912.06;;;10.22;100.00
38718;BME280;24468;52.128;9.278;2024-03-23T02:00:53;99905.16;;;10.16;100.00
38718;BME280;24468;52.128;9.278;2024-03-23T02:03:26;99905.25;;;10.15;100.00
38718;BME280;24468;52.128;9.278;2024-03-23T02:05:53;99900.56;;;10.36;100.00
38718;BME280;24468;52.128;9.278;2024-03-23T02:08:21;99891.84;;;10.31;100.00
38718;BME280;24468;52.128;9.278;2024-03-23T02:10:51;99896.09;;;10.17;100.00
38718;BME280;24468;52.128;9.278;2024-03-23T02:13:19;99888.13;;;10.33;100.00
38718;BME280;24468;52.128;9.278;2024-03-23T02:15:45;99885.81;;;10.08;100.00
38718;BME280;24468;52.128;9.278;2024-03-23T02:18:11;99876.63;;;10.12;100.00
38718;BME280;24468;52.128;9.278;2024-03-23T02:20:37;99873.31;;;10.07;100.00
38718;BME280;24468;52.128;9.278;2024-03-23T02:23:13;99875.75;;;10.12;100.00
38718;BME280;24468;52.128;9.278;2024-03-23T02:25:38;99869.94;;;10.19;100.00
38718;BME280;24468;52.128;9.278;2024-03-23T02:28:04;99873.72;;;9.99;100.00
38718;BME280;24468;52.128;9.278;2024-03-23T02:30:30;99867.06;;;10.07;100.00
38718;BME280;24468;52.128;9.278;2024-03-23T02:32:55;99869.13;;;10.01;100.00
38718;BME280;24468;52.128;9.278;2024-03-23T02:35:21;99857.47;;;10.01;100.00
38718;BME280;24468;52.128;9.278;2024-03-23T02:37:47;99858.09;;;9.89;100.00
38718;BME280;24468;52.128;9.278;2024-03-23T02:40:16;99863.03;;;9.80;100.00
38718;BME280;24468;52.128;9.278;2024-03-23T02:42:42;99861.38;;;9.61;100.00
38718;BME280;24468;52.128;9.278;2024-03-23T02:45:07;99858.34;;;9.67;100.00
38718;BME280;24468;52.128;9.278;2024-03-23T02:47:33;99862.44;;;9.22;100.00
38718;BME280;24468;52.128;9.278;2024-03-23T02:49:59;99860.13;;;9.14;100.00
38718;BME280;24468;52.128;9.278;2024-03-23T02:52:24;99861.50;;;9.40;100.00
38718;BME280;24468;52.128;9.278;2024-03-23T02:54:50;99862.34;;;9.23;100.00
38718;BME280;24468;52.128;9.278;2024-03-23T02:57:15;99871.19;;;9.08;100.00
38718;BME280;24468;52.128;9.278;2024-03-23T02:59:41;99852.63;;;9.02;100.00
38718;BME280;24468;52.128;9.278;2024-03-23T03:02:07;99855.44;;;9.18;100.00
38718;BME280;24468;52.128;9.278;2024-03-23T03:04:33;99864.06;;;9.07;100.00
38718;BME280;24468;52.128;9.278;2024-03-23T03:06:58;99863.84;;;9.11;100.00
38718;BME280;24468;52.128;9.278;2024-03-23T03:09:24;99853.97;;;8.93;100.00
38718;BME280;24468;52.128;9.278;2024-03-23T03:11:50;99859.28;;;8.57;100.00
38718;BME280;24468;52.128;9.278;2024-03-23T03:14:15;99847.72;;;8.93;100.00
38718;BME280;24468;52.128;9.278;2024-03-23T03:16:41;99841.34;;;9.12;100.00
38718;BME280;24468;52.128;9.278;2024-03-23T03:19:06;99846.97;;;9.08;100.00
38718;BME280;24468;52.128;9.278;2024-03-23T03:21:32;99849.19;;;9.17;100.00
38718;BME280;24468;52.128;9.278;2024-03-23T03:23:58;99854.94;;;8.92;100.00
38718;BME280;24468;52.128;9.278;2024-03-23T03:26:24;99849.78;;;9.05;100.00
38718;BME280;24468;52.128;9.278;2024-03-23T03:28:50;99850.41;;;8.74;100.00
38718;BME280;24468;52.128;9.278;2024-03-23T03:31:16;99848.69;;;8.73;100.00
38718;BME280;24468;52.128;9.278;2024-03-23T03:33:42;99843.47;;;8.70;100.00
38718;BME280;24468;52.128;9.278;2024-03-23T03:36:08;99853.56;;;8.64;100.00
38718;BME280;24468;52.128;9.278;2024-03-23T03:38:33;99845.97;;;8.92;100.00
38718;BME280;24468;52.128;9.278;2024-03-23T03:41:02;99840.75;;;9.25;100.00
38718;BME280;24468;52.128;9.278;2024-03-23T03:43:28;99845.88;;;9.12;100.00
38718;BME280;24468;52.128;9.278;2024-03-23T03:45:56;99830.16;;;9.22;100.00
38718;BME280;24468;52.128;9.278;2024-03-23T03:48:22;99837.75;;;9.48;100.00
38718;BME280;24468;52.128;9.278;2024-03-23T03:50:48;99835.78;;;9.69;100.00
38718;BME280;24468;52.128;9.278;2024-03-23T03:53:13;99830.56;;;9.66;100.00
38718;BME280;24468;52.128;9.278;2024-03-23T03:55:39;99833.66;;;9.41;100.00
38718;BME280;24468;52.128;9.278;2024-03-23T03:58:05;99815.72;;;9.23;100.00
38718;BME280;24468;52.128;9.278;2024-03-23T04:00:31;99818.13;;;8.93;100.00
38718;BME280;24468;52.128;9.278;2024-03-23T04:02:57;99827.53;;;8.84;100.00
38718;BME280;24468;52.128;9.278;2024-03-23T04:05:23;99815.41;;;9.11;100.00
38718;BME280;24468;52.128;9.278;2024-03-23T04:07:48;99816.19;;;9.13;100.00
38718;BME280;24468;52.128;9.278;2024-03-23T04:10:14;99805.00;;;9.04;100.00
38718;BME280;24468;52.128;9.278;2024-03-23T04:12:43;99810.38;;;8.86;100.00
38718;BME280;24468;52.128;9.278;2024-03-23T04:15:10;99806.84;;;9.03;100.00
38718;BME280;24468;52.128;9.278;2024-03-23T04:17:35;99809.00;;;9.31;100.00
38718;BME280;24468;52.128;9.278;2024-03-23T04:20:02;99812.31;;;9.54;100.00
38718;BME280;24468;52.128;9.278;2024-03-23T04:22:29;99807.75;;;9.56;100.00
38718;BME280;24468;52.128;9.278;2024-03-23T04:24:58;99813.75;;;9.26;100.00
38718;BME280;24468;52.128;9.278;2024-03-23T04:27:24;99816.47;;;9.44;100.00
38718;BME280;24468;52.128;9.278;2024-03-23T04:29:52;99813.47;;;9.32;100.00
38718;BME280;24468;52.128;9.278;2024-03-23T04:32:18;99811.91;;;9.27;100.00
38718;BME280;24468;52.128;9.278;2024-03-23T04:34:44;99802.09;;;9.26;100.00
38718;BME280;24468;52.128;9.278;2024-03-23T04:37:11;99800.59;;;9.38;100.00
38718;BME280;24468;52.128;9.278;2024-03-23T04:39:37;99808.59;;;9.56;100.00
38718;BME280;24468;52.128;9.278;2024-03-23T04:42:03;99799.75;;;9.54;100.00
38718;BME280;24468;52.128;9.278;2024-03-23T04:44:29;99793.41;;;9.55;100.00
38718;BME280;24468;52.128;9.278;2024-03-23T04:46:56;99792.38;;;9.58;100.00
38718;BME280;24468;52.128;9.278;2024-03-23T04:49:22;99786.13;;;9.57;100.00
38718;BME280;24468;52.128;9.278;2024-03-23T04:51:48;99788.00;;;9.73;100.00
38718;BME280;24468;52.128;9.278;2024-03-23T04:54:13;99792.53;;;9.20;100.00
38718;BME280;24468;52.128;9.278;2024-03-23T04:56:39;99777.16;;;9.05;100.00
38718;BME280;24468;52.128;9.278;2024-03-23T04:59:05;99772.06;;;8.81;100.00
38718;BME280;24468;52.128;9.278;2024-03-23T05:01:31;99775.53;;;9.20;100.00
38718;BME280;24468;52.128;9.278;2024-03-23T05:03:57;99774.34;;;9.25;100.00
38718;BME280;24468;52.128;9.278;2024-03-23T05:06:24;99770.13;;;9.20;100.00
38718;BME280;24468;52.128;9.278;2024-03-23T05:08:50;99783.03;;;9.30;100.00
38718;BME280;24468;52.128;9.278;2024-03-23T05:11:15;99774.63;;;9.54;100.00
38718;BME280;24468;52.128;9.278;2024-03-23T05:13:42;99773.44;;;9.60;100.00
38718;BME280;24468;52.128;9.278;2024-03-23T05:16:07;99777.00;;;9.43;100.00
38718;BME280;24468;52.128;9.278;2024-03-23T05:18:34;99783.44;;;9.40;100.00
38718;BME280;24468;52.128;9.278;2024-03-23T05:21:00;99780.56;;;9.43;100.00
38718;BME280;24468;52.128;9.278;2024-03-23T05:23:26;99781.28;;;9.12;100.00
38718;BME280;24468;52.128;9.278;2024-03-23T05:25:53;99795.63;;;8.76;100.00
38718;BME280;24468;52.128;9.278;2024-03-23T05:28:19;99792.22;;;8.54;100.00
38718;BME280;24468;52.128;9.278;2024-03-23T05:30:54;99789.22;;;8.79;100.00
38718;BME280;24468;52.128;9.278;2024-03-23T05:33:20;99783.38;;;8.88;100.00
38718;BME280;24468;52.128;9.278;2024-03-23T05:35:46;99770.19;;;8.83;100.00
38718;BME280;24468;52.128;9.278;2024-03-23T05:38:13;99775.44;;;8.49;100.00
38718;BME280;24468;52.128;9.278;2024-03-23T05:40:39;99773.56;;;8.51;100.00
38718;BME280;24468;52.128;9.278;2024-03-23T05:43:06;99773.63;;;8.49;100.00
38718;BME280;24468;52.128;9.278;2024-03-23T05:45:32;99780.47;;;8.17;100.00
38718;BME280;24468;52.128;9.278;2024-03-23T05:47:58;99780.38;;;7.80;100.00
38718;BME280;24468;52.128;9.278;2024-03-23T05:50:24;99784.44;;;7.89;100.00
38718;BME280;24468;52.128;9.278;2024-03-23T05:52:50;99768.72;;;7.20;100.00
38718;BME280;24468;52.128;9.278;2024-03-23T05:55:16;99777.97;;;7.74;100.00
38718;BME280;24468;52.128;9.278;2024-03-23T05:57:41;99775.03;;;7.99;100.00
38718;BME280;24468;52.128;9.278;2024-03-23T06:00:07;99772.16;;;8.23;100.00
38718;BME280;24468;52.128;9.278;2024-03-23T06:02:44;99768.75;;;8.57;100.00
38718;BME280;24468;52.128;9.278;2024-03-23T06:05:11;99762.03;;;8.28;100.00
38718;BME280;24468;52.128;9.278;2024-03-23T06:07:37;99768.47;;;7.86;100.00
38718;BME280;24468;52.128;9.278;2024-03-23T06:10:03;99764.59;;;8.31;100.00
38718;BME280;24468;52.128;9.278;2024-03-23T06:12:29;99764.38;;;8.36;100.00
38718;BME280;24468;52.128;9.278;2024-03-23T06:14:54;99764.97;;;8.61;100.00
38718;BME280;24468;52.128;9.278;2024-03-23T06:17:20;99764.81;;;8.64;100.00
38718;BME280;24468;52.128;9.278;2024-03-23T06:19:46;99768.25;;;8.85;100.00
38718;BME280;24468;52.128;9.278;2024-03-23T06:22:12;99767.41;;;8.66;100.00
38718;BME280;24468;52.128;9.278;2024-03-23T06:24:37;99776.34;;;8.66;100.00
38718;BME280;24468;52.128;9.278;2024-03-23T06:27:03;99772.47;;;8.91;100.00
38718;BME280;24468;52.128;9.278;2024-03-23T06:29:29;99774.78;;;8.99;100.00
38718;BME280;24468;52.128;9.278;2024-03-23T06:31:55;99772.81;;;8.66;100.00
38718;BME280;24468;52.128;9.278;2024-03-23T06:34:21;99780.59;;;8.72;100.00
38718;BME280;24468;52.128;9.278;2024-03-23T06:36:50;99775.81;;;8.41;100.00
38718;BME280;24468;52.128;9.278;2024-03-23T06:39:16;99773.25;;;8.93;100.00
38718;BME280;24468;52.128;9.278;2024-03-23T06:41:52;99772.81;;;8.66;100.00
38718;BME280;24468;52.128;9.278;2024-03-23T06:44:19;99775.84;;;8.58;100.00
38718;BME280;24468;52.128;9.278;2024-03-23T06:46:45;99784.59;;;8.44;100.00
38718;BME280;24468;52.128;9.278;2024-03-23T06:49:11;99788.03;;;8.48;100.00
38718;BME280;24468;52.128;9.278;2024-03-23T06:51:37;99792.06;;;8.57;100.00
38718;BME280;24468;52.128;9.278;2024-03-23T06:54:05;99791.47;;;8.31;100.00
38718;BME280;24468;52.128;9.278;2024-03-23T06:56:30;99788.22;;;8.43;100.00
38718;BME280;24468;52.128;9.278;2024-03-23T06:58:57;99790.41;;;8.54;100.00
38718;BME280;24468;52.128;9.278;2024-03-23T07:01:22;99782.03;;;8.60;100.00
38718;BME280;24468;52.128;9.278;2024-03-23T07:03:48;99781.63;;;8.70;100.00
38718;BME280;24468;52.128;9.278;2024-03-23T07:06:14;99777.25;;;9.03;100.00
38718;BME280;24468;52.128;9.278;2024-03-23T07:08:39;99782.31;;;8.73;100.00
38718;BME280;24468;52.128;9.278;2024-03-23T07:11:05;99779.97;;;8.48;100.00
38718;BME280;24468;52.128;9.278;2024-03-23T07:13:31;99779.47;;;8.19;100.00
38718;BME280;24468;52.128;9.278;2024-03-23T07:15:57;99789.03;;;8.45;100.00
38718;BME280;24468;52.128;9.278;2024-03-23T07:18:23;99795.75;;;8.35;100.00
38718;BME280;24468;52.128;9.278;2024-03-23T07:20:56;99776.41;;;8.48;100.00
38718;BME280;24468;52.128;9.278;2024-03-23T07:23:23;99786.41;;;8.63;100.00
38718;BME280;24468;52.128;9.278;2024-03-23T07:25:58;99779.75;;;8.89;100.00
38718;BME280;24468;52.128;9.278;2024-03-23T07:28:24;99788.72;;;8.71;100.00
38718;BME280;24468;52.128;9.278;2024-03-23T07:31:07;99789.69;;;8.51;100.00
38718;BME280;24468;52.128;9.278;2024-03-23T07:33:38;99799.59;;;8.30;100.00
38718;BME280;24468;52.128;9.278;2024-03-23T07:36:07;99798.09;;;8.62;100.00
38718;BME280;24468;52.128;9.278;2024-03-23T07:38:32;99808.25;;;8.74;100.00
38718;BME280;24468;52.128;9.278;2024-03-23T07:41:20;99808.72;;;8.65;100.00
38718;BME280;24468;52.128;9.278;2024-03-23T07:43:47;99805.81;;;8.70;100.00
38718;BME280;24468;52.128;9.278;2024-03-23T07:46:14;99807.34;;;8.56;100.00
38718;BME280;24468;52.128;9.278;2024-03-23T07:48:40;99805.84;;;8.87;100.00
38718;BME280;24468;52.128;9.278;2024-03-23T07:51:16;99791.47;;;8.69;100.00
38718;BME280;24468;52.128;9.278;2024-03-23T07:53:44;99797.22;;;8.80;100.00
38718;BME280;24468;52.128;9.278;2024-03-23T07:56:15;99801.09;;;8.56;100.00
38718;BME280;24468;52.128;9.278;2024-03-23T07:58:41;99794.03;;;9.26;100.00
38718;BME280;24468;52.128;9.278;2024-03-23T08:01:12;99801.56;;;8.83;100.00
38718;BME280;24468;52.128;9.278;2024-03-23T08:03:41;99791.59;;;9.39;100.00
38718;BME280;24468;52.128;9.278;2024-03-23T08:06:18;99795.47;;;8.79;100.00
38718;BME280;24468;52.128;9.278;2024-03-23T08:08:55;99808.28;;;8.55;100.00
38718;BME280;24468;52.128;9.278;2024-03-23T08:11:31;99811.00;;;8.35;100.00
38718;BME280;24468;52.128;9.278;2024-03-23T08:13:58;99802.47;;;9.01;100.00
38718;BME280;24468;52.128;9.278;2024-03-23T08:16:24;99809.13;;;8.75;100.00
38718;BME280;24468;52.128;9.278;2024-03-23T08:18:52;99801.63;;;9.00;100.00
38718;BME280;24468;52.128;9.278;2024-03-23T08:21:18;99816.63;;;8.68;100.00
38718;BME280;24468;52.128;9.278;2024-03-23T08:23:44;99803.56;;;8.97;100.00
38718;BME280;24468;52.128;9.278;2024-03-23T08:26:12;99804.78;;;8.72;100.00
38718;BME280;24468;52.128;9.278;2024-03-23T08:28:38;99793.16;;;9.25;100.00
38718;BME280;24468;52.128;9.278;2024-03-23T08:31:07;99812.50;;;9.16;100.00
38718;BME280;24468;52.128;9.278;2024-03-23T08:33:33;99807.16;;;9.15;100.00
38718;BME280;24468;52.128;9.278;2024-03-23T08:36:01;99798.31;;;9.47;100.00
38718;BME280;24468;52.128;9.278;2024-03-23T08:38:28;99798.56;;;9.60;100.00
38718;BME280;24468;52.128;9.278;2024-03-23T08:40:58;99791.75;;;9.53;100.00
38718;BME280;24468;52.128;9.278;2024-03-23T08:43:23;99793.50;;;9.37;100.00
38718;BME280;24468;52.128;9.278;2024-03-23T08:45:49;99788.25;;;9.51;100.00
38718;BME280;24468;52.128;9.278;2024-03-23T08:48:16;99788.50;;;9.64;100.00
38718;BME280;24468;52.128;9.278;2024-03-23T08:50:41;99789.06;;;9.35;100.00
38718;BME280;24468;52.128;9.278;2024-03-23T08:53:07;99791.22;;;9.46;100.00
38718;BME280;24468;52.128;9.278;2024-03-23T08:55:32;99790.06;;;9.68;100.00
38718;BME280;24468;52.128;9.278;2024-03-23T08:57:58;99790.50;;;10.27;100.00
38718;BME280;24468;52.128;9.278;2024-03-23T09:00:23;99778.88;;;9.93;100.00
38718;BME280;24468;52.128;9.278;2024-03-23T09:02:49;99789.31;;;9.99;100.00
38718;BME280;24468;52.128;9.278;2024-03-23T09:05:15;99799.75;;;9.54;100.00
38718;BME280;24468;52.128;9.278;2024-03-23T09:07:41;99790.91;;;8.99;100.00
38718;BME280;24468;52.128;9.278;2024-03-23T09:10:07;99796.53;;;8.94;100.00
38718;BME280;24468;52.128;9.278;2024-03-23T09:12:33;99799.25;;;9.11;100.00
38718;BME280;24468;52.128;9.278;2024-03-23T09:14:58;99797.63;;;9.44;100.00
38718;BME280;24468;52.128;9.278;2024-03-23T09:17:24;99797.47;;;9.97;100.00
38718;BME280;24468;52.128;9.278;2024-03-23T09:19:49;99783.34;;;10.43;100.00
38718;BME280;24468;52.128;9.278;2024-03-23T09:22:15;99790.09;;;10.01;100.00
38718;BME280;24468;52.128;9.278;2024-03-23T09:24:40;99787.97;;;10.23;100.00
38718;BME280;24468;52.128;9.278;2024-03-23T09:27:06;99825.47;;;9.43;100.00
38718;BME280;24468;52.128;9.278;2024-03-23T09:29:31;99812.25;;;8.84;100.00
38718;BME280;24468;52.128;9.278;2024-03-23T09:31:57;99810.06;;;9.10;100.00
38718;BME280;24468;52.128;9.278;2024-03-23T09:34:22;99808.41;;;9.07;100.00
38718;BME280;24468;52.128;9.278;2024-03-23T09:36:51;99828.44;;;8.83;100.00
38718;BME280;24468;52.128;9.278;2024-03-23T09:39:18;99805.88;;;9.04;100.00
38718;BME280;24468;52.128;9.278;2024-03-23T09:41:45;99815.13;;;8.99;100.00
38718;BME280;24468;52.128;9.278;2024-03-23T09:44:10;99813.53;;;9.31;100.00
38718;BME280;24468;52.128;9.278;2024-03-23T09:46:36;99796.88;;;9.05;100.00
38718;BME280;24468;52.128;9.278;2024-03-23T09:49:02;99796.19;;;9.37;100.00
38718;BME280;24468;52.128;9.278;2024-03-23T09:51:30;99787.53;;;9.82;100.00
38718;BME280;24468;52.128;9.278;2024-03-23T09:53:57;99774.38;;;10.42;100.00
38718;BME280;24468;52.128;9.278;2024-03-23T09:56:22;99796.78;;;10.27;100.00
38718;BME280;24468;52.128;9.278;2024-03-23T09:58:49;99789.19;;;10.18;100.00
38718;BME280;24468;52.128;9.278;2024-03-23T10:01:15;99785.66;;;10.00;100.00
38718;BME280;24468;52.128;9.278;2024-03-23T10:03:44;99784.91;;;9.80;100.00
38718;BME280;24468;52.128;9.278;2024-03-23T10:06:11;99778.56;;;10.15;100.00
38718;BME280;24468;52.128;9.278;2024-03-23T10:08:36;99782.91;;;10.17;100.00
38718;BME280;24468;52.128;9.278;2024-03-23T10:11:14;99771.50;;;10.30;100.00
38718;BME280;24468;52.128;9.278;2024-03-23T10:13:44;99759.22;;;9.91;100.00
38718;BME280;24468;52.128;9.278;2024-03-23T10:16:11;99757.41;;;10.40;100.00
38718;BME280;24468;52.128;9.278;2024-03-23T10:18:40;99754.72;;;10.56;100.00
38718;BME280;24468;52.128;9.278;2024-03-23T10:21:10;99754.59;;;10.89;100.00
38718;BME280;24468;52.128;9.278;2024-03-23T10:23:38;99752.34;;;10.66;100.00
38718;BME280;24468;52.128;9.278;2024-03-23T10:31:17;99747.38;;;10.74;100.00
38718;BME280;24468;52.128;9.278;2024-03-23T10:33:49;99745.31;;;11.09;100.00
38718;BME280;24468;52.128;9.278;2024-03-23T10:36:15;99762.28;;;10.81;98.38
38718;BME280;24468;52.128;9.278;2024-03-23T10:38:42;99793.41;;;10.06;100.00
38718;BME280;24468;52.128;9.278;2024-03-23T10:41:09;99791.72;;;9.88;100.00
38718;BME280;24468;52.128;9.278;2024-03-23T10:43:36;99784.41;;;9.90;100.00
38718;BME280;24468;52.128;9.278;2024-03-23T10:46:03;99771.41;;;9.47;100.00
38718;BME280;24468;52.128;9.278;2024-03-23T10:48:29;99806.75;;;8.68;100.00
38718;BME280;24468;52.128;9.278;2024-03-23T10:50:54;99790.13;;;8.02;100.00
38718;BME280;24468;52.128;9.278;2024-03-23T10:53:27;99790.81;;;8.07;100.00
38718;BME280;24468;52.128;9.278;2024-03-23T10:55:57;99787.63;;;7.78;100.00
38718;BME280;24468;52.128;9.278;2024-03-23T10:58:45;99785.34;;;8.09;100.00
38718;BME280;24468;52.128;9.278;2024-03-23T11:01:13;99791.91;;;7.83;100.00
38718;BME280;24468;52.128;9.278;2024-03-23T11:03:39;99775.91;;;8.19;100.00
38718;BME280;24468;52.128;9.278;2024-03-23T11:06:09;99770.03;;;8.86;100.00
38718;BME280;24468;52.128;9.278;2024-03-23T11:08:40;99771.44;;;8.94;100.00
38718;BME280;24468;52.128;9.278;2024-03-23T11:11:20;99766.72;;;9.51;100.00
38718;BME280;24468;52.128;9.278;2024-03-23T11:13:53;99744.66;;;10.11;100.00
38718;BME280;24468;52.128;9.278;2024-03-23T11:16:28;99731.41;;;11.01;100.00
38718;BME280;24468;52.128;9.278;2024-03-23T11:19:36;99736.97;;;11.14;100.00
38718;BME280;24468;52.128;9.278;2024-03-23T11:22:02;99745.59;;;11.35;100.00
38718;BME280;24468;52.128;9.278;2024-03-23T11:24:28;99747.81;;;10.66;100.00
38718;BME280;24468;52.128;9.278;2024-03-23T11:26:54;99746.13;;;10.16;100.00
38718;BME280;24468;52.128;9.278;2024-03-23T11:29:20;99764.25;;;9.64;100.00
38718;BME280;24468;52.128;9.278;2024-03-23T11:31:51;99751.13;;;8.69;100.00
38718;BME280;24468;52.128;9.278;2024-03-23T11:34:17;99776.16;;;8.52;100.00
38718;BME280;24468;52.128;9.278;2024-03-23T11:36:45;99773.53;;;8.32;100.00
38718;BME280;24468;52.128;9.278;2024-03-23T11:39:15;99756.94;;;8.42;100.00
38718;BME280;24468;52.128;9.278;2024-03-23T11:41:52;99760.72;;;8.75;100.00
38718;BME280;24468;52.128;9.278;2024-03-23T11:44:27;99764.41;;;9.61;100.00
38718;BME280;24468;52.128;9.278;2024-03-23T11:46:53;99758.97;;;10.29;100.00
38718;BME280;24468;52.128;9.278;2024-03-23T11:49:29;99744.19;;;10.67;100.00
38718;BME280;24468;52.128;9.278;2024-03-23T11:51:56;99746.97;;;10.34;100.00
38718;BME280;24468;52.128;9.278;2024-03-23T11:54:26;99749.66;;;10.50;100.00
38718;BME280;24468;52.128;9.278;2024-03-23T11:56:59;99744.63;;;10.44;100.00
38718;BME280;24468;52.128;9.278;2024-03-23T11:59:36;99765.06;;;9.66;100.00
38718;BME280;24468;52.128;9.278;2024-03-23T12:02:13;99793.72;;;9.32;100.00
38718;BME280;24468;52.128;9.278;2024-03-23T12:04:40;99812.78;;;9.10;100.00
38718;BME280;24468;52.128;9.278;2024-03-23T12:07:16;99818.69;;;8.05;100.00
38718;BME280;24468;52.128;9.278;2024-03-23T12:09:46;99819.25;;;7.72;100.00
38718;BME280;24468;52.128;9.278;2024-03-23T12:12:16;99842.06;;;7.62;100.00
38718;BME280;24468;52.128;9.278;2024-03-23T12:15:01;99847.16;;;7.05;100.00
38718;BME280;24468;52.128;9.278;2024-03-23T12:17:27;99844.13;;;6.68;100.00
38718;BME280;24468;52.128;9.278;2024-03-23T12:19:52;99842.25;;;6.49;100.00
38718;BME280;24468;52.128;9.278;2024-03-23T12:22:22;99819.84;;;6.73;100.00
38718;BME280;24468;52.128;9.278;2024-03-23T12:24:48;99807.84;;;6.82;100.00
38718;BME280;24468;52.128;9.278;2024-03-23T12:27:14;99797.16;;;7.45;100.00
38718;BME280;24468;52.128;9.278;2024-03-23T12:29:40;99801.25;;;7.33;100.00
38718;BME280;24468;52.128;9.278;2024-03-23T12:32:11;99798.28;;;7.60;100.00
38718;BME280;24468;52.128;9.278;2024-03-23T12:34:37;99789.19;;;7.64;100.00
38718;BME280;24468;52.128;9.278;2024-03-23T12:37:03;99793.28;;;8.12;100.00
38718;BME280;24468;52.128;9.278;2024-03-23T12:39:29;99790.09;;;8.04;100.00
38718;BME280;24468;52.128;9.278;2024-03-23T12:41:54;99801.97;;;8.17;100.00
38718;BME280;24468;52.128;9.278;2024-03-23T12:44:20;99793.00;;;8.37;100.00
38718;BME280;24468;52.128;9.278;2024-03-23T12:46:46;99796.44;;;8.40;100.00
38718;BME280;24468;52.128;9.278;2024-03-23T12:49:12;99803.81;;;8.16;100.00
38718;BME280;24468;52.128;9.278;2024-03-23T12:51:37;99803.31;;;8.27;100.00
38718;BME280;24468;52.128;9.278;2024-03-23T12:54:03;99793.63;;;8.04;100.00
38718;BME280;24468;52.128;9.278;2024-03-23T12:56:29;99792.72;;;8.62;100.00
38718;BME280;24468;52.128;9.278;2024-03-23T12:58:55;99779.59;;;8.92;100.00
38718;BME280;24468;52.128;9.278;2024-03-23T13:01:25;99777.72;;;9.11;100.00
38718;BME280;24468;52.128;9.278;2024-03-23T13:03:51;99770.75;;;9.42;100.00
38718;BME280;24468;52.128;9.278;2024-03-23T13:06:17;99766.06;;;8.94;100.00
38718;BME280;24468;52.128;9.278;2024-03-23T13:08:46;99767.22;;;8.88;100.00
38718;BME280;24468;52.128;9.278;2024-03-23T13:11:13;99770.22;;;8.45;100.00
38718;BME280;24468;52.128;9.278;2024-03-23T13:13:42;99765.00;;;8.79;100.00
38718;BME280;24468;52.128;9.278;2024-03-23T13:16:08;99761.97;;;8.67;100.00
38718;BME280;24468;52.128;9.278;2024-03-23T13:18:33;99770.94;;;8.49;100.00
38718;BME280;24468;52.128;9.278;2024-03-23T13:20:59;99772.31;;;8.39;100.00
38718;BME280;24468;52.128;9.278;2024-03-23T13:23:25;99774.66;;;7.88;100.00
38718;BME280;24468;52.128;9.278;2024-03-23T13:25:55;99781.75;;;7.89;100.00
38718;BME280;24468;52.128;9.278;2024-03-23T13:28:24;99786.00;;;8.14;100.00
38718;BME280;24468;52.128;9.278;2024-03-23T13:30:54;99785.28;;;7.50;100.00
38718;BME280;24468;52.128;9.278;2024-03-23T13:33:20;99797.94;;;7.26;100.00
38718;BME280;24468;52.128;9.278;2024-03-23T13:35:52;99818.09;;;6.94;100.00
38718;BME280;24468;52.128;9.278;2024-03-23T13:38:18;99802.75;;;6.98;100.00
38718;BME280;24468;52.128;9.278;2024-03-23T13:41:00;99789.63;;;7.12;100.00
38718;BME280;24468;52.128;9.278;2024-03-23T13:43:27;99790.41;;;6.72;100.00
38718;BME280;24468;52.128;9.278;2024-03-23T13:45:58;99796.22;;;8.06;100.00
38718;BME280;24468;52.128;9.278;2024-03-23T13:48:26;99806.00;;;8.27;100.00
38718;BME280;24468;52.128;9.278;2024-03-23T13:51:03;99792.94;;;8.57;100.00
38718;BME280;24468;52.128;9.278;2024-03-23T13:53:30;99794.34;;;9.02;100.00
38718;BME280;24468;52.128;9.278;2024-03-23T13:55:56;99813.47;;;8.77;100.00
38718;BME280;24468;52.128;9.278;2024-03-23T13:58:21;99853.41;;;8.28;100.00